Time;durP1;ratioP1;P1;durP2;ratioP2;P2;SDS_P1;SDS_P2;PMS_P1;PMS_P2;Temp;Humidity;BMP_temperature;BMP_pressure;BME280_temperature;BME280_humidity;BME280_pressure;Samples;Min_cycle;Max_cycle;Signal;HPM_P1;HPM_P2
2021/10/31 00:01:18;;;;;;;79.53;56.00;;;;;;;;;;5091279;28;20493;-81
2021/10/31 00:03:44;;;;;;;77.68;55.13;;;;;;;;;;5090204;28;20831;-82
2021/10/31 00:06:11;;;;;;;76.97;55.83;;;;;;;;;;5089375;28;20416;-83
2021/10/31 00:08:39;;;;;;;74.10;55.58;;;;;;;;;;5090600;28;20395;-81
2021/10/31 00:11:06;;;;;;;76.55;55.05;;;;;;;;;;5089675;28;21145;-80
2021/10/31 00:13:33;;;;;;;72.88;55.35;;;;;;;;;;5090696;28;20483;-81
2021/10/31 00:16:01;;;;;;;76.00;55.63;;;;;;;;;;5085232;28;20428;-80
2021/10/31 00:18:28;;;;;;;74.15;54.38;;;;;;;;;;5082383;28;20722;-81
2021/10/31 00:20:56;;;;;;;77.32;53.13;;;;;;;;;;5088720;28;20430;-83
2021/10/31 00:23:23;;;;;;;77.80;53.88;;;;;;;;;;5086596;28;20415;-82
2021/10/31 00:25:51;;;;;;;76.50;54.88;;;;;;;;;;5086986;28;20404;-83
2021/10/31 00:28:18;;;;;;;79.27;54.77;;;;;;;;;;5089351;28;21154;-82
2021/10/31 00:30:45;;;;;;;76.78;56.40;;;;;;;;;;5093357;27;20400;-83
2021/10/31 00:33:14;;;;;;;76.72;54.88;;;;;;;;;;5092342;27;20400;-83
2021/10/31 00:35:41;;;;;;;74.43;54.78;;;;;;;;;;5091689;28;20426;-83
2021/10/31 00:38:08;;;;;;;73.85;54.38;;;;;;;;;;5093655;28;20881;-83
2021/10/31 00:40:34;;;;;;;74.72;55.03;;;;;;;;;;5089243;28;20814;-83
2021/10/31 00:43:01;;;;;;;72.50;53.78;;;;;;;;;;5089188;28;20403;-82
2021/10/31 00:45:28;;;;;;;71.07;53.83;;;;;;;;;;5091764;28;20476;-83
2021/10/31 00:47:55;;;;;;;73.90;54.50;;;;;;;;;;5095747;27;20548;-84
2021/10/31 00:50:23;;;;;;;72.00;53.00;;;;;;;;;;5089740;28;20465;-83
2021/10/31 00:52:51;;;;;;;76.27;54.53;;;;;;;;;;5092069;28;20450;-83
2021/10/31 00:55:18;;;;;;;72.57;53.08;;;;;;;;;;5090124;28;20408;-83
2021/10/31 00:57:46;;;;;;;73.57;54.17;;;;;;;;;;5093900;27;21183;-82
2021/10/31 01:00:13;;;;;;;73.40;54.00;;;;;;;;;;5087891;28;20923;-83
2021/10/31 01:02:41;;;;;;;71.15;54.10;;;;;;;;;;5091546;28;20756;-83
2021/10/31 01:05:10;;;;;;;73.17;53.93;;;;;;;;;;5091249;28;20806;-83
2021/10/31 01:08:11;;;;;;;73.18;54.50;;;;;;;;;;5092811;27;20400;-83
2021/10/31 01:11:02;;;;;;;72.20;54.30;;;;;;;;;;5094037;28;20759;-83
2021/10/31 01:13:54;;;;;;;72.82;54.38;;;;;;;;;;5093728;28;20394;-82
2021/10/31 01:16:37;;;;;;;77.73;53.67;;;;;;;;;;5103140;27;20477;-83
2021/10/31 01:19:22;;;;;;;70.70;52.90;;;;;;;;;;5094016;28;20493;-82
2021/10/31 01:21:57;;;;;;;75.00;53.72;;;;;;;;;;5098299;28;20410;-82
2021/10/31 01:24:44;;;;;;;71.80;54.47;;;;;;;;;;5095637;28;20403;-83
2021/10/31 01:27:19;;;;;;;70.03;54.05;;;;;;;;;;5089694;28;21091;-83
2021/10/31 01:29:56;;;;;;;71.25;53.08;;;;;;;;;;5095804;28;20403;-83
2021/10/31 01:32:31;;;;;;;77.07;53.70;;;;;;;;;;5097562;28;20924;-83
2021/10/31 01:35:06;;;;;;;74.65;54.08;;;;;;;;;;5097403;28;20406;-83
2021/10/31 01:37:46;;;;;;;74.53;52.97;;;;;;;;;;5097553;28;20438;-83
2021/10/31 01:40:19;;;;;;;75.72;54.25;;;;;;;;;;5097742;28;20982;-83
2021/10/31 01:42:54;;;;;;;76.35;53.58;;;;;;;;;;5096036;28;20398;-83
2021/10/31 01:45:28;;;;;;;73.75;53.50;;;;;;;;;;5099792;28;20380;-83
2021/10/31 01:48:06;;;;;;;72.90;53.40;;;;;;;;;;5127668;27;20422;-83
2021/10/31 01:50:39;;;;;;;71.20;52.75;;;;;;;;;;5096258;28;20392;-83
2021/10/31 01:53:12;;;;;;;72.97;53.23;;;;;;;;;;5096487;28;20512;-83
2021/10/31 01:55:46;;;;;;;72.90;53.80;;;;;;;;;;5100120;28;20415;-83
2021/10/31 01:58:14;;;;;;;72.85;51.83;;;;;;;;;;5098426;28;20487;-83
2021/10/31 02:00:44;;;;;;;75.10;52.97;;;;;;;;;;5091364;28;20412;-84
2021/10/31 02:03:13;;;;;;;72.43;53.00;;;;;;;;;;5095611;28;21217;-83
2021/10/31 02:05:41;;;;;;;74.03;53.78;;;;;;;;;;5096193;28;20421;-83
2021/10/31 02:08:10;;;;;;;70.00;51.63;;;;;;;;;;5090278;28;20407;-83
2021/10/31 02:10:40;;;;;;;72.45;53.60;;;;;;;;;;5097391;28;20903;-83
2021/10/31 02:13:11;;;;;;;72.43;53.20;;;;;;;;;;5090914;28;20400;-83
2021/10/31 02:15:39;;;;;;;75.13;52.95;;;;;;;;;;5098168;27;20409;-83
2021/10/31 02:18:06;;;;;;;76.40;53.83;;;;;;;;;;5099563;28;20406;-84
2021/10/31 02:20:35;;;;;;;73.80;52.35;;;;;;;;;;5094127;28;20396;-83
2021/10/31 02:23:03;;;;;;;75.20;54.13;;;;;;;;;;5095826;28;20919;-83
2021/10/31 02:25:31;;;;;;;74.07;52.87;;;;;;;;;;5094187;28;20463;-83
2021/10/31 02:27:58;;;;;;;69.78;52.03;;;;;;;;;;5092079;28;20437;-83
2021/10/31 02:30:25;;;;;;;74.88;52.47;;;;;;;;;;5093883;28;20402;-83
2021/10/31 02:32:52;;;;;;;69.70;52.03;;;;;;;;;;5103629;27;20433;-83
2021/10/31 02:35:19;;;;;;;71.18;53.00;;;;;;;;;;5092538;28;20455;-83
2021/10/31 02:37:46;;;;;;;72.20;52.03;;;;;;;;;;5095235;28;20546;-83
2021/10/31 02:40:17;;;;;;;69.20;51.72;;;;;;;;;;5091960;28;20419;-84
2021/10/31 02:42:43;;;;;;;71.03;49.78;;;;;;;;;;5097868;28;20701;-83
2021/10/31 02:45:12;;;;;;;69.07;49.97;;;;;;;;;;5091159;28;20423;-83
2021/10/31 02:47:41;;;;;;;70.28;51.13;;;;;;;;;;5100655;28;20402;-84
2021/10/31 02:50:11;;;;;;;67.88;49.42;;;;;;;;;;5092630;28;20402;-83
2021/10/31 02:52:52;;;;;;;66.55;49.15;;;;;;;;;;5097540;28;20792;-83
2021/10/31 02:55:23;;;;;;;71.32;50.30;;;;;;;;;;5085828;28;20803;-83
2021/10/31 02:57:56;;;;;;;67.63;48.83;;;;;;;;;;5097121;28;20411;-83
2021/10/31 03:00:27;;;;;;;67.68;49.00;;;;;;;;;;5095617;28;20490;-83
2021/10/31 03:02:55;;;;;;;66.90;49.95;;;;;;;;;;5098078;27;20731;-83
2021/10/31 03:05:22;;;;;;;71.53;49.78;;;;;;;;;;5105910;28;20852;-83
2021/10/31 03:07:50;;;;;;;66.37;48.73;;;;;;;;;;5105339;28;20406;-84
2021/10/31 03:10:18;;;;;;;66.35;48.65;;;;;;;;;;5092010;28;20408;-83
2021/10/31 03:12:49;;;;;;;66.47;48.58;;;;;;;;;;5094532;28;20406;-83
2021/10/31 03:15:16;;;;;;;64.25;47.85;;;;;;;;;;5106494;28;20406;-83
2021/10/31 03:17:43;;;;;;;64.18;47.75;;;;;;;;;;5093658;28;20439;-83
2021/10/31 03:20:11;;;;;;;72.43;48.28;;;;;;;;;;5085737;28;20864;-83
2021/10/31 03:22:38;;;;;;;63.88;46.70;;;;;;;;;;5084670;28;20404;-83
2021/10/31 03:25:06;;;;;;;64.60;47.15;;;;;;;;;;5085587;28;20820;-83
2021/10/31 03:27:33;;;;;;;65.97;48.25;;;;;;;;;;5101112;28;20400;-83
2021/10/31 03:30:01;;;;;;;67.35;47.90;;;;;;;;;;5105467;28;20398;-83
2021/10/31 03:32:28;;;;;;;65.18;47.20;;;;;;;;;;5098035;28;20402;-83
2021/10/31 03:34:55;;;;;;;63.65;47.10;;;;;;;;;;5086989;28;20407;-83
2021/10/31 03:37:22;;;;;;;66.53;47.13;;;;;;;;;;5106394;28;20429;-83
2021/10/31 03:39:49;;;;;;;64.90;47.33;;;;;;;;;;5104973;28;20390;-84
2021/10/31 03:42:16;;;;;;;63.35;46.33;;;;;;;;;;5103114;28;20399;-83
2021/10/31 03:44:49;;;;;;;64.65;46.78;;;;;;;;;;5084493;28;20412;-83
2021/10/31 03:47:18;;;;;;;61.10;45.70;;;;;;;;;;5103458;28;20887;-83
2021/10/31 03:49:44;;;;;;;61.25;46.38;;;;;;;;;;5084566;28;20736;-83
2021/10/31 03:52:12;;;;;;;62.07;46.07;;;;;;;;;;5085259;28;20400;-83
2021/10/31 03:54:39;;;;;;;65.20;46.40;;;;;;;;;;5097715;28;20897;-84
2021/10/31 03:57:07;;;;;;;62.90;45.58;;;;;;;;;;5105833;28;20425;-83
2021/10/31 03:59:33;;;;;;;61.35;45.33;;;;;;;;;;5103937;28;20568;-83
2021/10/31 04:02:00;;;;;;;63.30;45.50;;;;;;;;;;5096369;28;20404;-83
2021/10/31 04:04:29;;;;;;;60.58;44.88;;;;;;;;;;5088820;28;20404;-83
2021/10/31 04:06:56;;;;;;;63.00;45.78;;;;;;;;;;5097156;28;20905;-83
2021/10/31 04:09:23;;;;;;;60.80;45.13;;;;;;;;;;5096521;28;20403;-83
2021/10/31 04:11:50;;;;;;;62.45;45.55;;;;;;;;;;5096980;28;20400;-83
2021/10/31 04:14:16;;;;;;;59.95;44.75;;;;;;;;;;5100727;28;20411;-83
2021/10/31 04:16:44;;;;;;;61.58;44.80;;;;;;;;;;5099257;27;20672;-83
2021/10/31 04:19:11;;;;;;;61.30;44.42;;;;;;;;;;5100003;28;20483;-83
2021/10/31 04:21:39;;;;;;;59.67;44.87;;;;;;;;;;5097197;28;20455;-84
2021/10/31 04:24:06;;;;;;;60.47;44.50;;;;;;;;;;5096837;28;20408;-83
2021/10/31 04:26:33;;;;;;;60.28;43.78;;;;;;;;;;5094768;28;20390;-83
2021/10/31 04:28:59;;;;;;;58.73;44.00;;;;;;;;;;5097229;28;20397;-84
2021/10/31 04:31:26;;;;;;;57.47;42.35;;;;;;;;;;5096524;27;20465;-83
2021/10/31 04:33:53;;;;;;;58.17;41.58;;;;;;;;;;5100111;28;20394;-83
2021/10/31 04:36:20;;;;;;;56.33;41.50;;;;;;;;;;5093378;28;20424;-83
2021/10/31 04:38:54;;;;;;;57.10;42.47;;;;;;;;;;5098659;28;20908;-83
2021/10/31 04:41:21;;;;;;;58.25;41.72;;;;;;;;;;5095594;28;20409;-83
2021/10/31 04:43:48;;;;;;;56.55;42.10;;;;;;;;;;5097316;28;20416;-83
2021/10/31 04:46:14;;;;;;;53.92;40.65;;;;;;;;;;5106203;27;20395;-83
2021/10/31 04:48:41;;;;;;;61.38;44.75;;;;;;;;;;5092931;28;20878;-83
2021/10/31 04:51:08;;;;;;;58.10;43.23;;;;;;;;;;5094826;28;20487;-83
2021/10/31 04:53:35;;;;;;;58.60;42.97;;;;;;;;;;5097540;28;20894;-83
2021/10/31 04:56:03;;;;;;;60.30;44.28;;;;;;;;;;5105428;28;20375;-83
2021/10/31 04:58:30;;;;;;;57.85;43.00;;;;;;;;;;5116415;28;20755;-83
2021/10/31 05:00:57;;;;;;;61.67;43.25;;;;;;;;;;5107666;27;20389;-83
2021/10/31 05:03:24;;;;;;;60.57;44.30;;;;;;;;;;5097016;27;20387;-83
2021/10/31 05:05:51;;;;;;;60.47;44.47;;;;;;;;;;5095547;28;20407;-83
2021/10/31 05:08:18;;;;;;;60.17;44.35;;;;;;;;;;5093987;28;20408;-83
2021/10/31 05:10:44;;;;;;;56.28;43.45;;;;;;;;;;5099054;28;20409;-83
2021/10/31 05:13:13;;;;;;;58.33;44.08;;;;;;;;;;5096111;28;20400;-83
2021/10/31 05:15:39;;;;;;;59.00;43.17;;;;;;;;;;5103876;27;20406;-83
2021/10/31 05:18:07;;;;;;;60.88;44.60;;;;;;;;;;5099302;28;20888;-83
2021/10/31 05:20:33;;;;;;;60.87;45.00;;;;;;;;;;5094733;28;20909;-84
2021/10/31 05:23:00;;;;;;;62.05;45.92;;;;;;;;;;5098659;28;20396;-83
2021/10/31 05:25:27;;;;;;;65.85;48.45;;;;;;;;;;5096019;28;20769;-83
2021/10/31 05:27:54;;;;;;;64.85;47.83;;;;;;;;;;5097264;28;20397;-83
2021/10/31 05:30:22;;;;;;;63.80;48.58;;;;;;;;;;5093731;28;20404;-83
2021/10/31 05:32:51;;;;;;;63.97;48.63;;;;;;;;;;5094239;28;20434;-83
2021/10/31 05:35:18;;;;;;;65.38;49.00;;;;;;;;;;5087076;28;20388;-83
2021/10/31 05:37:46;;;;;;;64.90;49.30;;;;;;;;;;5094329;28;20425;-83
2021/10/31 05:40:15;;;;;;;65.85;49.35;;;;;;;;;;5094097;28;20402;-84
2021/10/31 05:42:43;;;;;;;64.05;48.63;;;;;;;;;;5098832;28;20421;-83
2021/10/31 05:45:10;;;;;;;67.90;49.65;;;;;;;;;;5096782;27;21044;-83
2021/10/31 05:47:41;;;;;;;67.43;48.85;;;;;;;;;;5101531;27;20896;-83
2021/10/31 05:50:10;;;;;;;69.70;50.30;;;;;;;;;;5093366;28;20912;-83
2021/10/31 05:52:38;;;;;;;65.38;49.20;;;;;;;;;;5092604;28;20410;-83
2021/10/31 05:55:07;;;;;;;63.45;47.75;;;;;;;;;;5092500;28;20398;-83
2021/10/31 05:57:34;;;;;;;63.10;47.55;;;;;;;;;;5089108;28;20416;-83
2021/10/31 06:00:05;;;;;;;66.65;48.08;;;;;;;;;;5091985;28;20443;-83
2021/10/31 06:02:32;;;;;;;65.53;48.33;;;;;;;;;;5090321;27;20464;-84
2021/10/31 06:05:01;;;;;;;67.03;49.30;;;;;;;;;;5093257;28;20405;-84
2021/10/31 06:07:28;;;;;;;65.27;46.30;;;;;;;;;;5088974;28;20392;-84
2021/10/31 06:09:55;;;;;;;63.83;46.47;;;;;;;;;;5094698;28;20699;-84
2021/10/31 06:12:23;;;;;;;63.73;46.33;;;;;;;;;;5094762;28;20405;-84
2021/10/31 06:14:49;;;;;;;62.55;46.13;;;;;;;;;;5099062;27;20404;-83
2021/10/31 06:17:16;;;;;;;59.70;43.80;;;;;;;;;;5094658;28;20809;-83
2021/10/31 06:19:44;;;;;;;61.75;44.15;;;;;;;;;;5097741;28;20661;-83
2021/10/31 06:22:12;;;;;;;59.38;44.08;;;;;;;;;;5093637;28;20407;-84
2021/10/31 06:24:39;;;;;;;61.03;44.28;;;;;;;;;;5091725;28;20391;-83
2021/10/31 06:27:06;;;;;;;61.47;44.08;;;;;;;;;;5089587;28;20869;-84
2021/10/31 06:29:33;;;;;;;57.53;42.50;;;;;;;;;;5094340;28;20824;-83
2021/10/31 06:32:00;;;;;;;63.58;44.40;;;;;;;;;;5098164;28;20419;-83
2021/10/31 06:34:26;;;;;;;59.03;43.33;;;;;;;;;;5094270;28;20400;-83
2021/10/31 06:36:53;;;;;;;59.95;43.17;;;;;;;;;;5091709;28;20408;-83
2021/10/31 06:39:21;;;;;;;58.13;42.23;;;;;;;;;;5089917;28;20498;-84
2021/10/31 06:41:48;;;;;;;55.22;39.97;;;;;;;;;;5090847;28;20881;-83
2021/10/31 06:44:15;;;;;;;57.50;41.10;;;;;;;;;;5091952;28;20414;-84
2021/10/31 06:46:42;;;;;;;54.95;40.60;;;;;;;;;;5103846;27;20406;-84
2021/10/31 06:49:10;;;;;;;56.28;40.15;;;;;;;;;;5096703;28;20489;-83
2021/10/31 06:51:37;;;;;;;55.08;41.03;;;;;;;;;;5095879;28;20405;-83
2021/10/31 06:54:04;;;;;;;58.37;42.40;;;;;;;;;;5091219;28;20952;-83
2021/10/31 06:56:32;;;;;;;55.72;41.63;;;;;;;;;;5095706;28;20407;-84
2021/10/31 06:59:00;;;;;;;54.20;40.33;;;;;;;;;;5091233;28;20408;-83
2021/10/31 07:01:27;;;;;;;56.13;40.40;;;;;;;;;;5096821;27;20486;-83
2021/10/31 07:03:54;;;;;;;54.03;40.88;;;;;;;;;;5096996;28;20522;-83
2021/10/31 07:06:21;;;;;;;56.83;40.15;;;;;;;;;;5094691;28;20417;-84
2021/10/31 07:08:48;;;;;;;54.15;40.78;;;;;;;;;;5097145;28;20394;-84
2021/10/31 07:11:15;;;;;;;56.67;41.78;;;;;;;;;;5090500;28;20408;-84
2021/10/31 07:13:43;;;;;;;55.88;42.20;;;;;;;;;;5085612;28;21143;-83
2021/10/31 07:16:10;;;;;;;54.58;40.03;;;;;;;;;;5097304;28;20406;-83
2021/10/31 07:18:36;;;;;;;56.25;41.83;;;;;;;;;;5093446;28;20416;-84
2021/10/31 07:21:04;;;;;;;54.53;40.47;;;;;;;;;;5092360;28;20388;-83
2021/10/31 07:23:31;;;;;;;58.67;41.58;;;;;;;;;;5091887;28;20703;-84
2021/10/31 07:25:58;;;;;;;64.50;44.90;;;;;;;;;;5090918;28;20780;-83
2021/10/31 07:28:25;;;;;;;64.55;47.10;;;;;;;;;;5093036;28;20396;-83
2021/10/31 07:30:55;;;;;;;63.90;46.10;;;;;;;;;;5093647;28;21212;-84
2021/10/31 07:33:22;;;;;;;62.60;45.85;;;;;;;;;;5096018;28;20740;-84
2021/10/31 07:35:49;;;;;;;65.88;45.28;;;;;;;;;;5091635;28;20756;-84
2021/10/31 07:38:16;;;;;;;63.80;47.17;;;;;;;;;;5091078;28;20507;-83
2021/10/31 07:40:44;;;;;;;65.53;47.78;;;;;;;;;;5098456;28;20396;-84
2021/10/31 07:43:11;;;;;;;67.80;50.15;;;;;;;;;;5101433;28;20793;-84
2021/10/31 07:45:38;;;;;;;67.43;47.50;;;;;;;;;;5102691;27;20399;-83
2021/10/31 07:48:07;;;;;;;69.45;48.83;;;;;;;;;;5097179;27;20400;-83
2021/10/31 07:50:36;;;;;;;67.40;48.78;;;;;;;;;;5099225;28;20396;-84
2021/10/31 07:53:03;;;;;;;68.17;49.70;;;;;;;;;;5093091;28;20946;-84
2021/10/31 07:55:32;;;;;;;72.00;53.80;;;;;;;;;;5098257;28;20421;-84
2021/10/31 07:58:00;;;;;;;70.43;51.38;;;;;;;;;;5098009;28;20440;-83
2021/10/31 08:00:27;;;;;;;73.40;52.17;;;;;;;;;;5099278;28;20398;-84
2021/10/31 08:02:54;;;;;;;70.05;50.70;;;;;;;;;;5094201;27;20914;-83
2021/10/31 08:05:23;;;;;;;67.45;50.38;;;;;;;;;;5098796;28;20419;-83
2021/10/31 08:07:50;;;;;;;70.93;52.17;;;;;;;;;;5098667;27;20398;-83
2021/10/31 08:10:17;;;;;;;67.15;49.28;;;;;;;;;;5100043;28;20747;-84
2021/10/31 08:12:44;;;;;;;65.38;48.28;;;;;;;;;;5119772;28;20393;-83
2021/10/31 08:15:12;;;;;;;69.18;47.35;;;;;;;;;;5119243;27;20523;-84
2021/10/31 08:17:39;;;;;;;67.10;48.07;;;;;;;;;;5102440;28;20506;-83
2021/10/31 08:20:07;;;;;;;66.63;48.13;;;;;;;;;;5097071;28;20415;-83
2021/10/31 08:22:35;;;;;;;65.13;47.42;;;;;;;;;;5099345;28;20400;-84
2021/10/31 08:25:03;;;;;;;51.67;37.83;;;;;;;;;;5095112;28;20396;-83
2021/10/31 08:27:30;;;;;;;51.83;37.30;;;;;;;;;;5096245;28;20413;-84
2021/10/31 08:29:57;;;;;;;54.42;39.97;;;;;;;;;;5094142;28;20400;-83
2021/10/31 08:32:26;;;;;;;52.70;39.57;;;;;;;;;;5098931;27;20759;-84
2021/10/31 08:34:53;;;;;;;58.60;41.95;;;;;;;;;;5091967;28;20404;-82
2021/10/31 08:37:20;;;;;;;57.17;42.65;;;;;;;;;;5094749;28;20446;-83
2021/10/31 08:39:48;;;;;;;58.22;41.47;;;;;;;;;;5093778;28;20763;-83
2021/10/31 08:42:16;;;;;;;56.00;40.35;;;;;;;;;;5090888;28;20453;-84
2021/10/31 08:44:43;;;;;;;54.83;39.95;;;;;;;;;;5092474;27;20464;-83
2021/10/31 08:47:10;;;;;;;54.40;39.73;;;;;;;;;;5094451;27;20428;-83
2021/10/31 08:49:37;;;;;;;53.22;39.28;;;;;;;;;;5094971;28;20789;-83
2021/10/31 08:52:07;;;;;;;53.33;39.10;;;;;;;;;;5094579;28;20465;-82
2021/10/31 08:54:35;;;;;;;53.15;38.10;;;;;;;;;;5086565;28;20392;-83
2021/10/31 08:57:04;;;;;;;55.20;40.17;;;;;;;;;;5085331;28;20412;-82
2021/10/31 08:59:31;;;;;;;54.60;41.00;;;;;;;;;;5088563;28;20427;-83
2021/10/31 09:01:58;;;;;;;55.40;40.38;;;;;;;;;;5089630;27;20486;-83
2021/10/31 09:04:25;;;;;;;54.35;40.58;;;;;;;;;;5090511;28;20405;-83
2021/10/31 09:06:51;;;;;;;56.75;42.08;;;;;;;;;;5088195;28;20408;-82
2021/10/31 09:09:19;;;;;;;56.30;41.70;;;;;;;;;;5092499;28;20409;-81
2021/10/31 09:11:46;;;;;;;58.03;41.00;;;;;;;;;;5091263;28;20427;-83
2021/10/31 09:14:15;;;;;;;55.45;38.75;;;;;;;;;;5092539;27;20411;-81
2021/10/31 09:16:42;;;;;;;54.40;38.05;;;;;;;;;;5094638;27;20410;-83
2021/10/31 09:19:09;;;;;;;47.33;35.63;;;;;;;;;;5092890;28;20427;-83
2021/10/31 09:21:36;;;;;;;48.95;34.17;;;;;;;;;;5093595;28;20400;-83
2021/10/31 09:24:03;;;;;;;45.25;33.03;;;;;;;;;;5088676;28;20408;-83
2021/10/31 09:26:30;;;;;;;47.53;33.95;;;;;;;;;;5094225;28;20396;-83
2021/10/31 09:28:57;;;;;;;43.15;31.90;;;;;;;;;;5089442;28;20397;-84
2021/10/31 09:31:25;;;;;;;41.67;31.25;;;;;;;;;;5093648;27;20408;-82
2021/10/31 09:33:54;;;;;;;44.83;31.17;;;;;;;;;;5088539;28;20401;-83
2021/10/31 09:36:21;;;;;;;39.95;29.27;;;;;;;;;;5090871;28;20415;-84
2021/10/31 09:38:52;;;;;;;39.13;30.03;;;;;;;;;;5093764;28;20420;-85
2021/10/31 09:41:19;;;;;;;40.58;31.02;;;;;;;;;;5095081;28;20448;-85
2021/10/31 09:43:51;;;;;;;39.45;30.33;;;;;;;;;;5093633;28;20750;-84
2021/10/31 09:46:19;;;;;;;44.10;32.88;;;;;;;;;;5093130;28;20791;-84
2021/10/31 09:48:49;;;;;;;46.42;31.98;;;;;;;;;;5095628;28;20402;-85
2021/10/31 09:51:17;;;;;;;45.80;33.95;;;;;;;;;;5094850;28;20891;-84
2021/10/31 09:53:45;;;;;;;47.72;36.10;;;;;;;;;;5090199;28;20435;-84
2021/10/31 09:56:13;;;;;;;51.72;35.72;;;;;;;;;;5090715;28;20499;-84
2021/10/31 09:58:43;;;;;;;53.92;37.95;;;;;;;;;;5090545;28;20414;-84
2021/10/31 10:01:36;;;;;;;53.10;39.05;;;;;;;;;;5092239;28;20874;-84
2021/10/31 10:04:07;;;;;;;57.35;40.58;;;;;;;;;;5092132;28;20876;-84
2021/10/31 10:06:51;;;;;;;56.08;40.95;;;;;;;;;;5086889;28;20406;-84
2021/10/31 10:09:20;;;;;;;60.60;40.90;;;;;;;;;;5088523;28;20462;-83
2021/10/31 10:11:49;;;;;;;60.38;41.67;;;;;;;;;;5081416;28;20403;-84
2021/10/31 10:14:23;;;;;;;58.42;41.45;;;;;;;;;;5092636;27;20401;-82
2021/10/31 10:16:58;;;;;;;57.65;40.13;;;;;;;;;;5090276;27;20409;-82
2021/10/31 10:19:31;;;;;;;60.37;39.40;;;;;;;;;;5087764;28;20421;-83
2021/10/31 10:22:03;;;;;;;57.27;40.77;;;;;;;;;;5086069;28;20458;-83
2021/10/31 10:24:33;;;;;;;59.58;41.25;;;;;;;;;;5092718;28;20481;-84
2021/10/31 10:27:04;;;;;;;58.37;41.37;;;;;;;;;;5093618;28;20756;-84
2021/10/31 10:29:37;;;;;;;64.40;43.28;;;;;;;;;;5092155;28;20495;-83
2021/10/31 10:32:08;;;;;;;59.95;42.42;;;;;;;;;;5088953;27;20511;-85
2021/10/31 10:34:44;;;;;;;61.00;42.67;;;;;;;;;;5087351;28;20407;-84
2021/10/31 10:37:15;;;;;;;58.90;42.38;;;;;;;;;;5090782;28;20408;-83
2021/10/31 10:39:45;;;;;;;61.10;41.08;;;;;;;;;;5090733;28;20513;-85
2021/10/31 10:42:21;;;;;;;60.78;43.08;;;;;;;;;;5092681;28;20405;-84
2021/10/31 10:44:51;;;;;;;64.72;43.13;;;;;;;;;;5096362;28;20400;-84
2021/10/31 10:47:22;;;;;;;60.35;41.97;;;;;;;;;;5099659;27;20403;-84
2021/10/31 10:49:52;;;;;;;60.78;40.25;;;;;;;;;;5095928;28;20439;-85
2021/10/31 10:52:22;;;;;;;60.20;41.45;;;;;;;;;;5091877;27;20820;-84
2021/10/31 10:55:07;;;;;;;55.95;40.05;;;;;;;;;;5092935;28;20422;-84
2021/10/31 10:57:36;;;;;;;54.42;38.53;;;;;;;;;;5086768;28;20969;-83
2021/10/31 11:00:09;;;;;;;58.65;39.55;;;;;;;;;;5092524;28;20418;-84
2021/10/31 11:02:37;;;;;;;52.13;38.58;;;;;;;;;;5091626;28;20419;-85
2021/10/31 11:05:08;;;;;;;56.55;38.92;;;;;;;;;;5097443;28;20433;-84
2021/10/31 11:07:39;;;;;;;54.28;39.45;;;;;;;;;;5087575;28;20422;-84
2021/10/31 11:10:19;;;;;;;56.10;39.67;;;;;;;;;;5083661;27;20396;-84
2021/10/31 11:12:50;;;;;;;56.75;39.85;;;;;;;;;;5087307;28;20415;-84
2021/10/31 11:15:20;;;;;;;56.10;39.25;;;;;;;;;;5086009;27;20400;-83
2021/10/31 11:17:50;;;;;;;53.65;37.90;;;;;;;;;;5086472;28;20410;-84
2021/10/31 11:20:21;;;;;;;54.53;38.85;;;;;;;;;;5084376;28;20415;-84
2021/10/31 11:22:52;;;;;;;53.57;38.43;;;;;;;;;;5084763;28;21193;-84
2021/10/31 11:25:22;;;;;;;49.63;37.27;;;;;;;;;;5081430;28;20461;-84
2021/10/31 11:27:52;;;;;;;53.40;37.63;;;;;;;;;;5092350;28;20424;-83
2021/10/31 11:30:22;;;;;;;49.17;35.85;;;;;;;;;;5089054;28;20412;-84
2021/10/31 11:32:50;;;;;;;50.97;37.08;;;;;;;;;;5095971;28;20409;-83
2021/10/31 11:35:21;;;;;;;53.47;38.65;;;;;;;;;;5088881;28;20420;-83
2021/10/31 11:37:55;;;;;;;55.03;39.38;;;;;;;;;;5089129;28;20466;-84
2021/10/31 11:40:28;;;;;;;60.22;39.88;;;;;;;;;;5092658;28;20432;-84
2021/10/31 11:42:56;;;;;;;52.75;38.33;;;;;;;;;;5097685;28;20727;-84
2021/10/31 11:45:24;;;;;;;53.50;38.53;;;;;;;;;;5090508;28;20407;-84
2021/10/31 11:48:10;;;;;;;53.92;38.72;;;;;;;;;;5091353;27;20985;-83
2021/10/31 11:50:40;;;;;;;55.35;38.70;;;;;;;;;;5091531;28;20407;-84
2021/10/31 11:53:15;;;;;;;53.70;38.47;;;;;;;;;;5088878;28;20408;-84
2021/10/31 11:58:55;;;;;;;53.38;38.42;;;;;;;;;;5091973;28;20494;-84
2021/10/31 12:01:41;;;;;;;56.33;39.95;;;;;;;;;;5099231;28;20408;-82
2021/10/31 12:04:10;;;;;;;55.58;39.55;;;;;;;;;;5095901;28;21007;-83
2021/10/31 12:06:50;;;;;;;52.17;38.03;;;;;;;;;;5093874;28;20410;-84
2021/10/31 12:09:34;;;;;;;53.95;39.42;;;;;;;;;;5089897;28;20471;-83
2021/10/31 12:12:49;;;;;;;51.13;37.88;;;;;;;;;;5092085;28;20403;-84
2021/10/31 12:15:31;;;;;;;49.78;37.88;;;;;;;;;;5093582;28;20403;-84
2021/10/31 12:18:09;;;;;;;49.67;35.90;;;;;;;;;;5095723;28;20488;-84
2021/10/31 12:20:53;;;;;;;49.97;36.17;;;;;;;;;;5091584;28;20498;-84
2021/10/31 12:23:27;;;;;;;50.20;35.97;;;;;;;;;;5112309;28;20416;-83
2021/10/31 12:25:54;;;;;;;49.40;36.08;;;;;;;;;;5124670;28;20393;-83
2021/10/31 12:28:44;;;;;;;48.60;34.92;;;;;;;;;;5100534;27;20480;-82
2021/10/31 12:31:29;;;;;;;50.33;35.55;;;;;;;;;;5093552;27;20442;-82
2021/10/31 12:34:17;;;;;;;46.83;35.17;;;;;;;;;;5089322;27;20408;-83
2021/10/31 12:36:46;;;;;;;46.35;34.70;;;;;;;;;;5092729;28;20486;-84
2021/10/31 12:39:49;;;;;;;48.88;34.75;;;;;;;;;;5090520;28;20482;-83
2021/10/31 12:42:18;;;;;;;48.13;34.70;;;;;;;;;;5088842;27;20416;-83
2021/10/31 12:44:48;;;;;;;46.60;34.30;;;;;;;;;;5091024;28;20912;-83
2021/10/31 12:47:19;;;;;;;46.42;34.15;;;;;;;;;;5091370;27;20495;-82
2021/10/31 12:49:49;;;;;;;50.83;35.30;;;;;;;;;;5092337;27;20430;-75
2021/10/31 12:52:22;;;;;;;45.85;33.90;;;;;;;;;;5091686;28;20405;-84
2021/10/31 12:55:02;;;;;;;45.58;33.53;;;;;;;;;;5093925;28;20399;-84
2021/10/31 12:57:29;;;;;;;44.55;33.67;;;;;;;;;;5099689;28;20897;-82
2021/10/31 13:00:01;;;;;;;47.40;33.65;;;;;;;;;;5094188;28;20472;-84
2021/10/31 13:02:29;;;;;;;45.38;34.35;;;;;;;;;;5099242;27;20410;-83
2021/10/31 13:04:57;;;;;;;44.80;33.70;;;;;;;;;;5095041;28;20912;-83
2021/10/31 13:07:42;;;;;;;45.08;33.72;;;;;;;;;;5097915;28;20399;-84
2021/10/31 13:10:13;;;;;;;42.60;32.95;;;;;;;;;;5098169;28;20408;-83
2021/10/31 13:12:40;;;;;;;44.15;32.97;;;;;;;;;;5096919;28;20400;-83
2021/10/31 13:15:10;;;;;;;39.78;29.65;;;;;;;;;;5095487;28;20392;-83
2021/10/31 13:17:39;;;;;;;38.80;30.90;;;;;;;;;;5099390;27;20745;-83
2021/10/31 13:20:16;;;;;;;40.03;30.83;;;;;;;;;;5091524;28;20431;-83
2021/10/31 13:22:47;;;;;;;40.00;30.60;;;;;;;;;;5096565;28;20743;-83
2021/10/31 13:25:16;;;;;;;40.73;32.70;;;;;;;;;;5097181;28;20401;-83
2021/10/31 13:27:45;;;;;;;45.80;33.20;;;;;;;;;;5089973;28;20416;-84
2021/10/31 13:30:15;;;;;;;43.10;32.78;;;;;;;;;;5090687;28;20456;-83
2021/10/31 13:32:47;;;;;;;43.80;34.83;;;;;;;;;;5095197;27;20510;-83
2021/10/31 13:35:14;;;;;;;44.85;33.15;;;;;;;;;;5093005;28;20570;-83
2021/10/31 13:37:41;;;;;;;44.85;34.72;;;;;;;;;;5092091;28;20882;-84
2021/10/31 13:40:10;;;;;;;43.17;33.45;;;;;;;;;;5096807;28;20424;-84
2021/10/31 13:42:40;;;;;;;41.15;33.63;;;;;;;;;;5093451;28;20761;-83
2021/10/31 13:45:12;;;;;;;43.13;33.33;;;;;;;;;;5096910;28;20440;-84
2021/10/31 13:47:40;;;;;;;41.97;33.80;;;;;;;;;;5096356;27;20408;-83
2021/10/31 13:50:10;;;;;;;46.30;34.08;;;;;;;;;;5091981;28;20468;-83
2021/10/31 13:52:40;;;;;;;44.40;36.13;;;;;;;;;;5096081;28;20407;-82
2021/10/31 13:55:09;;;;;;;48.78;37.63;;;;;;;;;;5094491;28;20400;-82
2021/10/31 13:57:41;;;;;;;46.70;37.42;;;;;;;;;;5092798;28;20469;-81
2021/10/31 14:00:22;;;;;;;48.53;38.78;;;;;;;;;;5094234;28;20431;-82
2021/10/31 14:02:49;;;;;;;50.53;38.95;;;;;;;;;;5097037;27;20401;-82
2021/10/31 14:05:18;;;;;;;47.80;38.25;;;;;;;;;;5095019;28;20498;-83
2021/10/31 14:07:47;;;;;;;46.55;37.35;;;;;;;;;;5092594;28;20478;-81
2021/10/31 14:10:16;;;;;;;45.83;36.85;;;;;;;;;;5096291;28;20402;-82
2021/10/31 14:12:45;;;;;;;48.08;37.03;;;;;;;;;;5092351;28;20463;-83
2021/10/31 14:15:14;;;;;;;48.30;37.17;;;;;;;;;;5094446;28;20400;-82
2021/10/31 14:17:54;;;;;;;48.60;37.90;;;;;;;;;;5095798;27;20405;-81
2021/10/31 14:20:21;;;;;;;48.88;36.75;;;;;;;;;;5091641;28;20499;-83
2021/10/31 14:22:50;;;;;;;51.30;37.83;;;;;;;;;;5091727;28;20397;-83
2021/10/31 14:25:18;;;;;;;46.83;36.53;;;;;;;;;;5094576;28;20413;-82
2021/10/31 14:27:48;;;;;;;49.22;37.00;;;;;;;;;;5094057;28;20508;-82
2021/10/31 14:30:26;;;;;;;50.10;36.55;;;;;;;;;;5093774;28;20402;-82
2021/10/31 14:33:00;;;;;;;49.50;36.75;;;;;;;;;;5094730;28;20403;-83
2021/10/31 14:35:38;;;;;;;49.83;37.50;;;;;;;;;;5094533;28;20486;-82